Terminal Aerodrome Forecast
Issued by NWS Cleveland, OH

Home | Current Version | Previous Version | Graphics & Text | Print | Product List | Glossary On
Versions: 1 2 3 4 5 6 7 8 9 10 11 12 13 14 15
320
FTUS41 KCLE 281322 AAA
TAFTOL
TAF AMD
KTOL 281322Z 2813/2912 07012KT 5SM -RA BR SCT015 OVC035
     FM281500 06016KT P6SM -SHRA OVC015
     FM281700 05012KT P6SM OVC015
     FM290300 05007KT 5SM BR VCSH OVC010=

USA.gov is the U.S. government's official web portal to all federal, state and local government web resources and services.